Time;durP1;ratioP1;P1;durP2;ratioP2;P2;SDS_P1;SDS_P2;PMS_P1;PMS_P2;Temp;Humidity;BMP_temperature;BMP_pressure;BME280_temperature;BME280_humidity;BME280_pressure;Samples;Min_cycle;Max_cycle;Signal;HPM_P1;HPM_P2
2021/07/26 00:00:12;;;;;;;14.75;12.70;;;26.50;99.90;;;;;;5104102;28;20035;-72
2021/07/26 00:02:40;;;;;;;13.05;11.85;;;26.50;99.90;;;;;;5103686;28;20032;-71
2021/07/26 00:05:08;;;;;;;16.25;13.27;;;26.60;99.90;;;;;;5104557;28;20114;-71
2021/07/26 00:07:36;;;;;;;13.35;11.65;;;26.60;99.90;;;;;;5100920;28;20034;-70
2021/07/26 00:10:04;;;;;;;15.52;12.52;;;26.50;99.90;;;;;;5117478;28;20024;-71
2021/07/26 00:12:35;;;;;;;14.70;12.48;;;26.50;99.90;;;;;;5103193;28;20261;-72
2021/07/26 00:15:18;;;;;;;16.33;12.45;;;26.40;99.90;;;;;;5105385;28;20016;-71
2021/07/26 00:17:48;;;;;;;11.35;10.38;;;26.40;99.90;;;;;;5104575;28;20426;-72
2021/07/26 00:20:19;;;;;;;13.63;12.20;;;26.40;99.90;;;;;;5100343;28;20772;-72
2021/07/26 00:22:48;;;;;;;14.80;12.17;;;26.30;99.90;;;;;;5102800;28;20032;-71
2021/07/26 00:25:19;;;;;;;19.13;12.43;;;26.30;99.90;;;;;;5100262;28;20285;-71
2021/07/26 00:27:46;;;;;;;17.42;12.82;;;26.30;99.90;;;;;;5101950;28;20020;-72
2021/07/26 00:30:19;;;;;;;14.73;13.35;;;26.30;99.90;;;;;;5097471;28;20020;-72
2021/07/26 00:32:46;;;;;;;14.65;11.73;;;26.20;99.90;;;;;;5107724;28;20405;-71
2021/07/26 00:35:14;;;;;;;13.23;11.27;;;26.20;99.90;;;;;;5095613;28;20034;-72
2021/07/26 00:37:41;;;;;;;12.73;11.52;;;26.10;99.90;;;;;;5089896;28;20024;-71
2021/07/26 00:40:09;;;;;;;13.88;12.70;;;26.00;99.90;;;;;;5097171;28;20050;-70
2021/07/26 00:42:38;;;;;;;13.20;11.90;;;26.00;99.90;;;;;;5096872;28;20099;-71
2021/07/26 00:45:06;;;;;;;16.63;12.70;;;26.00;99.90;;;;;;5093583;28;20026;-72
2021/07/26 00:47:34;;;;;;;16.50;12.95;;;25.90;99.90;;;;;;5096964;28;20039;-71
2021/07/26 00:50:02;;;;;;;14.27;12.70;;;26.00;99.90;;;;;;5096294;28;20047;-73
2021/07/26 00:52:30;;;;;;;14.13;12.70;;;25.90;99.90;;;;;;5100755;28;20058;-71
2021/07/26 00:54:58;;;;;;;13.30;11.68;;;25.90;99.90;;;;;;5114382;28;20063;-71
2021/07/26 00:57:25;;;;;;;15.07;12.80;;;25.80;99.90;;;;;;5108948;28;20032;-71
2021/07/26 00:59:55;;;;;;;14.15;12.75;;;25.80;99.90;;;;;;5094314;28;20020;-71
2021/07/26 01:02:23;;;;;;;14.07;12.20;;;25.80;99.90;;;;;;5099665;28;20506;-71
2021/07/26 01:04:50;;;;;;;13.60;12.20;;;25.70;99.90;;;;;;5097961;28;20391;-70
2021/07/26 01:07:20;;;;;;;14.90;12.82;;;25.70;99.90;;;;;;5100507;28;20032;-70
2021/07/26 01:09:52;;;;;;;15.32;12.82;;;25.60;99.90;;;;;;5099612;28;20087;-72
2021/07/26 01:12:21;;;;;;;14.50;13.18;;;25.80;99.90;;;;;;5093970;28;20367;-72
2021/07/26 01:14:50;;;;;;;14.15;12.60;;;25.80;99.90;;;;;;5093415;28;20035;-71
2021/07/26 01:18:13;;;;;;;19.85;12.80;;;25.80;99.90;;;;;;5091744;28;20478;-72
2021/07/26 01:20:42;;;;;;;;;;;25.90;99.90;;;;;;5081789;28;20040;-71
2021/07/26 01:23:10;;;;;;;18.90;13.57;;;26.00;99.90;;;;;;5094273;28;19937;-71
2021/07/26 01:25:39;;;;;;;14.35;12.98;;;26.00;99.90;;;;;;5093154;28;20486;-71
2021/07/26 01:28:09;;;;;;;13.70;11.80;;;26.00;99.90;;;;;;5091399;28;20035;-72
2021/07/26 01:30:36;;;;;;;21.63;12.73;;;26.00;99.90;;;;;;5095676;28;20436;-71
2021/07/26 01:33:03;;;;;;;13.38;12.18;;;26.00;99.90;;;;;;5092911;28;20068;-72
2021/07/26 01:35:30;;;;;;;14.00;11.68;;;26.00;99.90;;;;;;5091896;28;20053;-71
2021/07/26 01:37:56;;;;;;;14.02;12.63;;;26.10;99.90;;;;;;5090064;28;20032;-71
2021/07/26 01:40:23;;;;;;;12.60;11.30;;;25.90;99.90;;;;;;5098169;28;20493;-70
2021/07/26 01:42:59;;;;;;;18.70;13.55;;;25.80;99.90;;;;;;5090827;28;20508;-71
2021/07/26 01:45:25;;;;;;;16.63;12.75;;;25.80;99.90;;;;;;5097117;28;20103;-71
2021/07/26 01:47:55;;;;;;;14.75;13.35;;;25.80;99.90;;;;;;5117394;28;20050;-71
2021/07/26 01:50:22;;;;;;;16.25;12.57;;;25.90;99.90;;;;;;5108973;28;20020;-71
2021/07/26 01:52:48;;;;;;;14.73;13.23;;;25.80;99.90;;;;;;5109584;28;20114;-71
2021/07/26 01:55:19;;;;;;;13.90;12.52;;;25.70;99.90;;;;;;5107501;28;20086;-72
2021/07/26 01:57:49;;;;;;;13.35;11.95;;;25.70;99.90;;;;;;5090629;28;20113;-70
2021/07/26 02:00:17;;;;;;;14.70;12.45;;;25.80;99.90;;;;;;5092409;28;20042;-70
2021/07/26 02:02:44;;;;;;;17.27;12.00;;;25.90;99.90;;;;;;5092145;28;20550;-71
2021/07/26 02:05:11;;;;;;;14.48;11.57;;;25.80;99.90;;;;;;5098018;28;20024;-71
2021/07/26 02:07:40;;;;;;;15.63;12.70;;;25.80;99.90;;;;;;5094112;28;20035;-71
2021/07/26 02:10:08;;;;;;;16.45;11.88;;;25.90;99.90;;;;;;5101152;28;20027;-71
2021/07/26 02:12:34;;;;;;;15.50;12.27;;;25.90;99.90;;;;;;5102274;28;20485;-71
2021/07/26 02:15:01;;;;;;;12.18;10.55;;;25.90;99.90;;;;;;5105236;28;20028;-71
2021/07/26 02:17:28;;;;;;;12.30;11.18;;;26.00;99.90;;;;;;5091232;28;20544;-71
2021/07/26 02:19:54;;;;;;;14.25;12.70;;;26.00;99.90;;;;;;5098497;28;20027;-72
2021/07/26 02:22:19;;;;;;;14.70;13.20;;;26.00;99.90;;;;;;5101098;28;20089;-72
2021/07/26 02:24:45;;;;;;;15.30;12.95;;;26.00;99.90;;;;;;5109081;27;20451;-71
2021/07/26 02:27:11;;;;;;;13.52;12.32;;;26.00;99.90;;;;;;5104460;28;20020;-72
2021/07/26 02:29:36;;;;;;;14.95;11.70;;;26.00;99.90;;;;;;5106097;28;20016;-72
2021/07/26 02:32:03;;;;;;;15.50;11.93;;;26.10;99.90;;;;;;5097230;28;20042;-70
2021/07/26 02:34:28;;;;;;;12.32;11.23;;;26.10;99.90;;;;;;5109820;28;20028;-71
2021/07/26 02:36:54;;;;;;;13.23;11.88;;;26.10;99.90;;;;;;5107224;28;20028;-71
2021/07/26 02:39:20;;;;;;;12.35;11.32;;;26.10;99.90;;;;;;5110265;28;20032;-71
2021/07/26 02:41:45;;;;;;;17.63;12.65;;;26.20;99.90;;;;;;5109197;28;20028;-71
2021/07/26 02:44:11;;;;;;;14.80;12.68;;;26.20;99.90;;;;;;5097147;28;20473;-70
2021/07/26 02:46:37;;;;;;;14.07;11.63;;;26.20;99.90;;;;;;5105978;28;20099;-70
2021/07/26 02:49:03;;;;;;;13.05;11.55;;;26.20;99.90;;;;;;5102190;28;20023;-70
2021/07/26 02:51:28;;;;;;;12.43;11.25;;;26.30;99.90;;;;;;5109166;28;20087;-70
2021/07/26 02:53:55;;;;;;;15.15;12.07;;;26.30;99.90;;;;;;5107840;28;20615;-69
2021/07/26 02:56:21;;;;;;;14.63;11.63;;;26.30;99.90;;;;;;5110210;28;20598;-70
2021/07/26 02:58:47;;;;;;;15.25;12.35;;;26.30;99.90;;;;;;5097661;28;20032;-70
2021/07/26 03:01:13;;;;;;;12.48;11.23;;;26.30;99.90;;;;;;5103400;28;20500;-70
2021/07/26 03:03:40;;;;;;;17.77;12.10;;;26.30;99.90;;;;;;5108611;28;20028;-69
2021/07/26 03:06:13;;;;;;;15.02;13.38;;;26.30;99.90;;;;;;5110112;28;20027;-70
2021/07/26 03:08:39;;;;;;;16.08;12.25;;;26.30;99.90;;;;;;5105691;28;20032;-70
2021/07/26 03:11:10;;;;;;;16.20;11.90;;;26.20;99.90;;;;;;5112770;28;20031;-70
2021/07/26 03:13:39;;;;;;;14.57;12.37;;;26.20;99.90;;;;;;5106964;28;20045;-70
2021/07/26 03:16:07;;;;;;;15.38;12.23;;;26.10;99.90;;;;;;5110492;28;20020;-70
2021/07/26 03:18:33;;;;;;;13.63;12.25;;;26.10;99.90;;;;;;5101173;27;20519;-70
2021/07/26 03:21:01;;;;;;;14.52;11.40;;;26.10;99.90;;;;;;5104317;28;20031;-71
2021/07/26 03:23:27;;;;;;;14.13;12.38;;;26.10;99.90;;;;;;5112842;28;20377;-70
2021/07/26 03:25:53;;;;;;;12.88;11.00;;;26.00;99.90;;;;;;5113646;28;20102;-70
2021/07/26 03:28:18;;;;;;;15.82;11.25;;;26.00;99.90;;;;;;5111572;28;20031;-70
2021/07/26 03:30:44;;;;;;;13.88;12.15;;;26.00;99.90;;;;;;5109135;28;20424;-71
2021/07/26 03:33:11;;;;;;;15.02;12.25;;;25.90;99.90;;;;;;5107399;28;20024;-71
2021/07/26 03:35:37;;;;;;;12.45;11.40;;;25.90;99.90;;;;;;5113223;28;20504;-71
2021/07/26 03:38:05;;;;;;;13.18;11.93;;;25.70;99.90;;;;;;5107688;27;20036;-71
2021/07/26 03:40:31;;;;;;;18.38;12.10;;;25.60;99.90;;;;;;5104942;28;20425;-69
2021/07/26 03:42:57;;;;;;;13.50;11.65;;;25.60;99.90;;;;;;5108025;28;20024;-70
2021/07/26 03:45:24;;;;;;;18.15;12.98;;;25.60;99.90;;;;;;5105529;28;20069;-70
2021/07/26 03:47:50;;;;;;;15.13;13.38;;;25.50;99.90;;;;;;5105908;28;20361;-71
2021/07/26 03:50:17;;;;;;;13.60;12.27;;;25.50;99.90;;;;;;5111554;28;20030;-71
2021/07/26 03:52:53;;;;;;;14.40;10.95;;;25.40;99.90;;;;;;5112114;28;20501;-71
2021/07/26 03:55:25;;;;;;;14.88;11.52;;;25.70;99.90;;;;;;5110858;28;20024;-70
2021/07/26 03:57:52;;;;;;;15.20;11.75;;;25.80;99.90;;;;;;5108632;28;20399;-70
2021/07/26 04:00:19;;;;;;;19.30;12.35;;;25.80;99.90;;;;;;5111688;28;20470;-71
2021/07/26 04:08:11;;;;;;;18.90;11.43;;;25.80;99.90;;;;;;5108505;27;20020;-71
2021/07/26 04:10:40;;;;;;;20.67;11.38;;;25.80;99.90;;;;;;5102996;28;20026;-71
2021/07/26 04:13:06;;;;;;;18.83;12.20;;;25.90;99.90;;;;;;5108010;28;20028;-72
2021/07/26 04:15:31;;;;;;;14.77;12.38;;;26.00;99.90;;;;;;5115159;28;20024;-71
2021/07/26 04:17:57;;;;;;;15.88;11.15;;;26.00;99.90;;;;;;5108143;28;20446;-71
2021/07/26 04:20:23;;;;;;;19.23;14.40;;;26.10;99.90;;;;;;5108982;28;20115;-71
2021/07/26 04:22:49;;;;;;;20.02;12.68;;;26.10;99.90;;;;;;5109487;28;20023;-71
2021/07/26 04:25:15;;;;;;;14.20;12.48;;;26.10;99.90;;;;;;5109164;28;20036;-71
2021/07/26 04:27:40;;;;;;;16.95;13.60;;;26.20;99.90;;;;;;5107933;28;20023;-71
2021/07/26 04:30:07;;;;;;;17.23;13.82;;;26.20;99.90;;;;;;5100123;28;20473;-70
2021/07/26 04:32:43;;;;;;;14.73;12.43;;;26.30;99.90;;;;;;5108847;28;20477;-70
2021/07/26 04:35:10;;;;;;;19.65;12.55;;;26.30;99.90;;;;;;5105196;28;20012;-70
2021/07/26 04:37:36;;;;;;;18.08;11.88;;;26.40;99.90;;;;;;5110802;28;20694;-72
2021/07/26 04:40:03;;;;;;;14.13;12.50;;;26.30;99.90;;;;;;5109732;28;20038;-70
2021/07/26 04:42:29;;;;;;;19.17;13.43;;;26.30;99.90;;;;;;5109746;28;20037;-71
2021/07/26 04:44:55;;;;;;;13.20;11.63;;;26.40;99.90;;;;;;5107865;28;20023;-71
2021/07/26 04:47:20;;;;;;;19.48;13.43;;;26.40;99.90;;;;;;5108578;28;20106;-70
2021/07/26 04:49:46;;;;;;;16.95;12.68;;;26.50;99.90;;;;;;5103805;28;20488;-70
2021/07/26 04:52:13;;;;;;;18.02;13.30;;;26.60;99.90;;;;;;5111654;28;20023;-70
2021/07/26 04:54:39;;;;;;;17.52;12.70;;;26.60;99.90;;;;;;5100466;28;20059;-70
2021/07/26 04:57:05;;;;;;;18.10;12.95;;;26.60;99.90;;;;;;5109463;28;20028;-70
2021/07/26 04:59:30;;;;;;;17.70;13.95;;;26.60;99.90;;;;;;5106561;28;20031;-70
2021/07/26 05:01:56;;;;;;;18.00;12.98;;;26.60;99.90;;;;;;5104966;28;20044;-71
2021/07/26 05:05:18;;;;;;;21.15;14.02;;;26.60;99.90;;;;;;5099734;28;20015;-71
2021/07/26 05:08:36;;;;;;;14.93;13.10;;;26.60;99.90;;;;;;5107140;28;20104;-71
2021/07/26 05:11:02;;;;;;;17.45;12.77;;;26.50;99.90;;;;;;5094172;28;20503;-70
2021/07/26 05:13:28;;;;;;;16.83;13.98;;;26.50;99.90;;;;;;5102706;27;20099;-72
2021/07/26 05:15:54;;;;;;;19.83;13.95;;;26.50;99.90;;;;;;5122859;27;20070;-71
2021/07/26 05:18:20;;;;;;;21.08;13.60;;;26.60;99.90;;;;;;5116672;27;20320;-71
2021/07/26 05:20:45;;;;;;;25.08;12.93;;;26.60;99.90;;;;;;5104078;28;20460;-70
2021/07/26 05:23:11;;;;;;;23.63;13.45;;;26.70;99.90;;;;;;5089846;28;20032;-71
2021/07/26 05:25:42;;;;;;;22.50;14.10;;;26.80;99.90;;;;;;5109358;28;20481;-71
2021/07/26 05:28:08;;;;;;;16.10;14.48;;;26.80;99.90;;;;;;5105548;28;20521;-70
2021/07/26 05:30:34;;;;;;;16.83;13.57;;;26.90;99.90;;;;;;5089625;28;20103;-71
2021/07/26 05:33:00;;;;;;;19.75;12.48;;;27.00;99.90;;;;;;5107569;28;20050;-70
2021/07/26 05:35:25;;;;;;;20.88;12.82;;;27.00;99.90;;;;;;5107778;27;20743;-70
2021/07/26 05:37:51;;;;;;;21.60;13.85;;;27.10;99.90;;;;;;5089742;28;20032;-70
2021/07/26 05:40:17;;;;;;;20.38;12.52;;;27.20;99.90;;;;;;5091194;28;20028;-71
2021/07/26 05:42:45;;;;;;;16.60;12.35;;;27.20;99.90;;;;;;5089673;28;20055;-72
2021/07/26 05:45:11;;;;;;;20.70;11.98;;;27.30;99.90;;;;;;5090427;28;20047;-72
2021/07/26 05:47:37;;;;;;;24.95;12.77;;;27.40;99.90;;;;;;5092948;28;20032;-71
2021/07/26 05:50:05;;;;;;;25.92;13.63;;;27.40;99.90;;;;;;5089068;28;20141;-71
2021/07/26 05:52:30;;;;;;;21.48;12.85;;;27.50;99.90;;;;;;5106234;28;20658;-71
2021/07/26 05:54:56;;;;;;;22.27;13.10;;;27.60;99.90;;;;;;5129427;27;20103;-70
2021/07/26 05:57:24;;;;;;;18.20;13.20;;;27.80;99.90;;;;;;5130497;27;20126;-70
2021/07/26 05:59:53;;;;;;;28.65;13.75;;;27.80;99.90;;;;;;5121330;27;20515;-70
2021/07/26 06:02:18;;;;;;;26.15;12.25;;;27.90;99.90;;;;;;5108248;28;20034;-71
2021/07/26 06:04:44;;;;;;;29.10;17.42;;;27.90;99.90;;;;;;5091020;28;20020;-70
2021/07/26 06:07:10;;;;;;;272.50;37.00;;;27.80;99.90;;;;;;5104406;28;20118;-70
2021/07/26 06:09:36;;;;;;;67.22;18.17;;;27.80;99.90;;;;;;5106169;28;20412;-70
2021/07/26 06:12:01;;;;;;;67.13;17.08;;;27.80;99.90;;;;;;5089275;28;20036;-70
2021/07/26 06:14:27;;;;;;;21.00;12.68;;;27.90;99.90;;;;;;5091441;28;20024;-70
2021/07/26 06:16:53;;;;;;;368.60;44.55;;;27.90;99.90;;;;;;5090799;28;20509;-70
2021/07/26 06:19:21;;;;;;;85.78;18.83;;;28.10;99.90;;;;;;5090672;28;20444;-69
2021/07/26 06:21:48;;;;;;;100.10;21.05;;;28.20;99.90;;;;;;5089255;28;20024;-70
2021/07/26 06:24:15;;;;;;;75.05;16.80;;;28.30;99.90;;;;;;5089759;28;20486;-70
2021/07/26 06:26:41;;;;;;;29.42;12.98;;;28.40;99.90;;;;;;5094080;28;20024;-70
2021/07/26 06:29:08;;;;;;;40.28;12.43;;;28.50;99.90;;;;;;5088878;28;20076;-71
2021/07/26 06:31:35;;;;;;;31.88;13.35;;;28.40;99.90;;;;;;5090662;28;20016;-70
2021/07/26 06:34:02;;;;;;;38.03;13.52;;;28.40;99.90;;;;;;5090432;28;20084;-70
2021/07/26 06:36:29;;;;;;;20.60;12.60;;;28.40;99.90;;;;;;5091576;28;20118;-70
2021/07/26 06:38:56;;;;;;;29.67;16.30;;;28.40;99.90;;;;;;5110724;28;20101;-71
2021/07/26 06:41:22;;;;;;;43.90;16.25;;;28.40;99.90;;;;;;5097229;28;20374;-71
2021/07/26 06:43:50;;;;;;;76.38;16.60;;;28.50;99.90;;;;;;5091446;28;20032;-72
2021/07/26 06:46:16;;;;;;;23.75;12.52;;;28.70;99.90;;;;;;5099826;28;20020;-72
2021/07/26 06:48:41;;;;;;;17.42;11.23;;;28.70;99.90;;;;;;5101786;28;20026;-70
2021/07/26 06:51:07;;;;;;;18.25;9.68;;;28.70;99.90;;;;;;5092643;28;20020;-72
2021/07/26 06:53:33;;;;;;;23.02;10.98;;;28.80;99.90;;;;;;5093284;28;20082;-71
2021/07/26 06:56:09;;;;;;;21.20;11.48;;;29.00;99.90;;;;;;5094223;28;20024;-71
2021/07/26 06:58:36;;;;;;;25.40;11.90;;;29.20;99.90;;;;;;5094094;28;20031;-70
2021/07/26 07:01:12;;;;;;;15.02;11.18;;;29.40;99.90;;;;;;5101311;28;20313;-70
2021/07/26 07:03:42;;;;;;;19.75;10.82;;;29.40;99.90;;;;;;5100713;28;20234;-70
2021/07/26 07:06:10;;;;;;;23.95;11.77;;;29.40;99.90;;;;;;5097127;28;20556;-69
2021/07/26 07:08:39;;;;;;;17.60;10.20;;;29.40;99.90;;;;;;5093811;28;20119;-70
2021/07/26 07:11:10;;;;;;;19.35;10.35;;;29.30;99.90;;;;;;5097732;28;20542;-70
2021/07/26 07:13:38;;;;;;;16.60;11.05;;;29.30;99.90;;;;;;5114439;28;20028;-70
2021/07/26 07:16:18;;;;;;;20.08;10.20;;;29.20;99.90;;;;;;5112969;28;20324;-69
2021/07/26 07:18:54;;;;;;;18.30;10.65;;;29.00;99.90;;;;;;5107079;28;20071;-69
2021/07/26 07:21:31;;;;;;;28.55;21.30;;;28.90;99.90;;;;;;5100418;28;20044;-69
2021/07/26 07:24:00;;;;;;;19.42;11.32;;;28.70;99.90;;;;;;5092095;28;20550;-73
2021/07/26 07:26:26;;;;;;;21.65;12.40;;;28.60;99.90;;;;;;5093143;28;20107;-71
2021/07/26 07:28:52;;;;;;;19.77;11.18;;;28.50;99.90;;;;;;5091419;28;20486;-72
2021/07/26 07:31:27;;;;;;;20.63;10.63;;;28.40;99.90;;;;;;5093025;28;20410;-74
2021/07/26 07:33:54;;;;;;;22.85;10.85;;;28.40;99.90;;;;;;5093391;28;20482;-75
2021/07/26 07:36:21;;;;;;;21.40;11.65;;;28.50;99.90;;;;;;5108076;28;20496;-74
2021/07/26 07:38:47;;;;;;;16.45;10.60;;;28.50;99.90;;;;;;5107410;28;20039;-76
2021/07/26 07:41:12;;;;;;;16.73;11.52;;;28.60;99.90;;;;;;5112687;28;20028;-74
2021/07/26 07:43:38;;;;;;;20.27;10.60;;;28.90;99.90;;;;;;5112113;28;20062;-72
2021/07/26 07:46:05;;;;;;;16.42;10.70;;;29.10;99.90;;;;;;5097888;28;20036;-72
2021/07/26 07:48:32;;;;;;;19.58;11.77;;;29.30;99.90;;;;;;5091641;28;20040;-73
2021/07/26 07:51:00;;;;;;;20.38;13.02;;;29.40;99.90;;;;;;5093091;28;20070;-74
2021/07/26 07:53:25;;;;;;;19.52;12.80;;;29.50;99.90;;;;;;5091825;28;20077;-73
2021/07/26 07:55:52;;;;;;;15.90;10.35;;;29.50;99.90;;;;;;5091804;28;20071;-74
2021/07/26 07:58:19;;;;;;;22.95;12.27;;;29.60;99.90;;;;;;5092910;28;20178;-75
2021/07/26 08:00:48;;;;;;;20.95;11.93;;;29.60;99.90;;;;;;5093741;28;20107;-72
2021/07/26 08:03:14;;;;;;;21.85;12.85;;;29.70;99.90;;;;;;5104967;28;20028;-75
2021/07/26 08:05:40;;;;;;;27.67;14.98;;;29.60;99.90;;;;;;5105136;28;20081;-73
2021/07/26 08:08:07;;;;;;;26.48;15.50;;;29.40;99.90;;;;;;5105181;28;20016;-73
2021/07/26 08:10:33;;;;;;;23.42;13.55;;;29.20;99.90;;;;;;5101160;28;20428;-73
2021/07/26 08:12:59;;;;;;;22.75;14.70;;;29.20;99.90;;;;;;5093201;28;20050;-75
2021/07/26 08:15:25;;;;;;;23.08;13.32;;;29.10;99.90;;;;;;5092786;28;20103;-73
2021/07/26 08:17:51;;;;;;;17.23;12.30;;;29.10;99.90;;;;;;5092035;28;20043;-73
2021/07/26 08:20:18;;;;;;;22.25;12.90;;;29.20;99.90;;;;;;5092296;28;20020;-73
2021/07/26 08:22:45;;;;;;;26.63;13.77;;;29.40;99.90;;;;;;5092160;28;20028;-74
2021/07/26 08:25:12;;;;;;;20.00;10.65;;;29.40;99.90;;;;;;5091649;28;20020;-74
2021/07/26 08:27:51;;;;;;;27.40;15.00;;;29.40;99.90;;;;;;5090556;28;20031;-73
2021/07/26 08:30:30;;;;;;;19.95;12.48;;;29.40;99.90;;;;;;5092549;28;20024;-74
2021/07/26 08:32:57;;;;;;;20.60;11.55;;;29.30;99.90;;;;;;5092045;28;20570;-74
2021/07/26 08:35:24;;;;;;;19.83;11.38;;;29.40;99.90;;;;;;5090860;28;20453;-73
2021/07/26 08:37:51;;;;;;;20.63;11.82;;;29.40;99.90;;;;;;5091746;28;20028;-73
2021/07/26 08:40:20;;;;;;;21.25;13.88;;;29.60;99.90;;;;;;5109704;28;20047;-73
2021/07/26 08:42:46;;;;;;;22.17;11.75;;;29.80;99.90;;;;;;5110703;28;20504;-72
2021/07/26 08:45:12;;;;;;;26.33;13.27;;;29.90;99.90;;;;;;5110783;28;20047;-73
2021/07/26 08:47:43;;;;;;;19.85;12.23;;;29.90;99.90;;;;;;5112203;28;20020;-73
2021/07/26 08:50:10;;;;;;;;;;;29.90;99.90;;;;;;5094140;28;20030;-74
2021/07/26 08:52:41;;;;;;;22.50;11.20;;;30.20;99.90;;;;;;5090460;28;19927;-73
2021/07/26 08:55:12;;;;;;;20.77;11.65;;;30.40;99.90;;;;;;5091969;28;20103;-73
2021/07/26 08:57:41;;;;;;;18.27;10.97;;;30.50;99.90;;;;;;5092951;28;20036;-73
2021/07/26 09:00:07;;;;;;;21.80;11.02;;;30.70;99.90;;;;;;5091693;28;20024;-73
2021/07/26 09:02:33;;;;;;;15.95;9.68;;;30.80;99.90;;;;;;5091498;28;20020;-73
2021/07/26 09:04:59;;;;;;;17.95;9.23;;;30.80;99.90;;;;;;5092235;28;20046;-73
2021/07/26 09:07:28;;;;;;;19.55;11.10;;;31.00;99.90;;;;;;5107825;28;20500;-73
2021/07/26 09:09:54;;;;;;;17.13;10.15;;;31.00;99.90;;;;;;5091599;28;20024;-77
2021/07/26 09:12:31;;;;;;;16.65;11.27;;;31.00;99.90;;;;;;5091264;28;20020;-75
2021/07/26 09:14:57;;;;;;;14.00;10.88;;;31.20;99.90;;;;;;5107151;28;20041;-71
2021/07/26 09:17:23;;;;;;;22.92;11.98;;;31.30;99.90;;;;;;5110145;28;20748;-73
2021/07/26 09:19:59;;;;;;;16.23;11.52;;;31.30;99.90;;;;;;5103949;28;20093;-73
2021/07/26 09:22:33;;;;;;;18.50;10.40;;;31.30;99.90;;;;;;5110229;28;20619;-73
2021/07/26 09:25:21;;;;;;;16.50;11.18;;;31.20;99.90;;;;;;5101729;28;20038;-73
2021/07/26 09:28:07;;;;;;;18.90;11.27;;;31.00;99.90;;;;;;5089842;28;20028;-73
2021/07/26 09:30:51;;;;;;;25.23;12.85;;;31.00;99.90;;;;;;5091034;28;20024;-73
2021/07/26 09:33:20;;;;;;;14.35;10.63;;;30.40;99.90;;;;;;5097817;28;20080;-74
2021/07/26 09:36:04;;;;;;;22.13;10.50;;;30.20;99.90;;;;;;5093378;28;20507;-71
2021/07/26 09:38:31;;;;;;;23.52;12.20;;;30.10;99.90;;;;;;5091449;28;20032;-73
2021/07/26 09:40:57;;;;;;;25.45;12.77;;;29.90;99.90;;;;;;5090752;28;20028;-74
2021/07/26 09:43:24;;;;;;;21.17;10.05;;;29.90;99.90;;;;;;5092910;28;20338;-74
2021/07/26 09:45:54;;;;;;;28.10;12.48;;;29.70;99.90;;;;;;5111272;28;20137;-71
2021/07/26 09:48:22;;;;;;;20.77;12.32;;;29.40;99.90;;;;;;5100273;27;20112;-72
2021/07/26 09:50:49;;;;;;;28.42;12.32;;;29.50;99.90;;;;;;5100596;27;20032;-74
2021/07/26 09:53:15;;;;;;;27.10;12.88;;;29.40;99.90;;;;;;5110203;28;20449;-74
2021/07/26 09:55:43;;;;;;;25.77;12.02;;;29.60;99.90;;;;;;5112414;28;20055;-72
2021/07/26 09:58:11;;;;;;;18.95;11.68;;;29.80;99.90;;;;;;5109966;28;20042;-74
2021/07/26 10:00:38;;;;;;;19.38;11.57;;;30.00;99.90;;;;;;5107974;28;20076;-72
2021/07/26 10:03:15;;;;;;;25.80;11.88;;;30.50;99.90;;;;;;5110445;28;20046;-74
2021/07/26 10:05:42;;;;;;;19.85;12.43;;;30.80;99.90;;;;;;5109715;28;20026;-71
2021/07/26 10:08:08;;;;;;;20.80;12.73;;;30.80;99.90;;;;;;5110818;28;20055;-71
2021/07/26 10:10:36;;;;;;;26.33;12.93;;;30.80;99.90;;;;;;5095101;28;20520;-72
2021/07/26 10:13:03;;;;;;;32.40;11.27;;;30.80;99.90;;;;;;5088970;28;20497;-71
2021/07/26 10:15:32;;;;;;;22.67;13.00;;;30.70;99.90;;;;;;5090107;28;20024;-72
2021/07/26 10:17:58;;;;;;;22.30;11.68;;;30.70;99.90;;;;;;5088791;28;20028;-72
2021/07/26 10:20:27;;;;;;;27.30;11.25;;;30.90;99.90;;;;;;5099214;28;20076;-70
2021/07/26 10:23:02;;;;;;;23.60;11.52;;;30.90;99.90;;;;;;5114791;28;20024;-72
2021/07/26 10:25:42;;;;;;;19.45;11.30;;;31.20;99.90;;;;;;5114988;28;20501;-72
2021/07/26 10:28:19;;;;;;;19.20;10.73;;;31.30;99.90;;;;;;5114846;28;20031;-72
2021/07/26 10:30:45;;;;;;;29.20;14.02;;;31.00;99.90;;;;;;5114387;28;20679;-72
2021/07/26 10:33:11;;;;;;;21.88;11.35;;;31.00;99.90;;;;;;5111733;28;20161;-72
2021/07/26 10:35:39;;;;;;;20.30;10.25;;;31.20;99.90;;;;;;5115098;28;20050;-73
2021/07/26 10:38:09;;;;;;;24.67;10.60;;;31.50;99.90;;;;;;5113010;28;20103;-71
2021/07/26 10:40:42;;;;;;;24.13;11.65;;;31.60;99.90;;;;;;5112399;28;20047;-70
2021/07/26 10:43:13;;;;;;;18.90;12.18;;;31.70;99.90;;;;;;5112995;28;20393;-72
2021/07/26 10:45:56;;;;;;;28.55;18.08;;;31.80;99.90;;;;;;5114666;28;20024;-72
2021/07/26 10:50:48;;;;;;;29.65;15.20;;;31.90;99.90;;;;;;5099676;28;20032;-73
2021/07/26 10:53:35;;;;;;;24.50;12.93;;;32.00;99.90;;;;;;5094181;28;20475;-72
2021/07/26 10:56:07;;;;;;;21.80;11.93;;;32.40;99.90;;;;;;5094950;28;20103;-72
2021/07/26 10:58:38;;;;;;;;;;;32.40;99.90;;;;;;5094337;28;20024;-71
2021/07/26 11:01:19;;;;;;;22.95;10.88;;;32.40;99.90;;;;;;5112892;28;19907;-73
2021/07/26 11:03:45;;;;;;;19.77;10.85;;;32.50;99.90;;;;;;5113800;28;20035;-71
2021/07/26 11:06:31;;;;;;;19.98;10.40;;;32.60;99.90;;;;;;5108877;28;20073;-72
2021/07/26 11:09:34;;;;;;;21.52;11.38;;;32.80;99.90;;;;;;5112326;28;20031;-71
2021/07/26 11:12:02;;;;;;;19.25;10.88;;;33.00;99.90;;;;;;5113067;28;20443;-72
2021/07/26 11:14:28;;;;;;;27.65;11.35;;;33.30;99.90;;;;;;5115558;28;20012;-72
2021/07/26 11:17:04;;;;;;;18.30;9.57;;;33.50;99.90;;;;;;5113719;28;20023;-73
2021/07/26 11:19:43;;;;;;;14.90;10.38;;;33.50;99.90;;;;;;5108613;28;20028;-73
2021/07/26 11:22:14;;;;;;;30.08;11.23;;;33.30;99.90;;;;;;5113444;28;20031;-73
2021/07/26 11:24:48;;;;;;;21.05;9.82;;;33.30;99.90;;;;;;5113519;28;20170;-74
2021/07/26 11:27:37;;;;;;;22.27;11.40;;;33.20;99.90;;;;;;5113414;28;20065;-71
2021/07/26 11:30:04;;;;;;;14.52;9.38;;;33.20;99.90;;;;;;5108990;28;20351;-72
2021/07/26 11:32:30;;;;;;;19.52;10.68;;;33.20;99.90;;;;;;5113389;28;20023;-73
2021/07/26 11:35:00;;;;;;;19.30;10.57;;;33.20;99.90;;;;;;5113607;28;20373;-72
2021/07/26 11:37:34;;;;;;;26.13;11.10;;;33.00;99.90;;;;;;5111931;28;20485;-72
2021/07/26 11:40:04;;;;;;;19.38;10.73;;;32.70;99.90;;;;;;5106553;28;20706;-72
2021/07/26 11:42:39;;;;;;;20.20;10.95;;;32.40;99.90;;;;;;5092756;28;20111;-72
2021/07/26 11:45:06;;;;;;;20.92;12.32;;;32.00;99.90;;;;;;5093110;28;20028;-71
2021/07/26 11:47:40;;;;;;;22.63;11.30;;;31.70;99.90;;;;;;5093059;28;20024;-71
2021/07/26 11:50:11;;;;;;;17.67;10.93;;;31.20;99.90;;;;;;5092757;28;20020;-72
2021/07/26 11:52:37;;;;;;;17.02;10.25;;;31.20;99.90;;;;;;5091506;28;20080;-71
2021/07/26 11:55:13;;;;;;;19.38;11.07;;;31.10;99.90;;;;;;5092890;28;20039;-71
2021/07/26 11:58:02;;;;;;;29.45;13.93;;;30.90;99.90;;;;;;5092499;28;20047;-71
2021/07/26 12:00:58;;;;;;;22.70;11.65;;;30.90;99.90;;;;;;5092263;28;20043;-71
2021/07/26 12:03:25;;;;;;;21.77;11.82;;;31.00;99.90;;;;;;5102633;28;20501;-67
2021/07/26 12:06:03;;;;;;;20.58;10.68;;;31.40;99.90;;;;;;5119527;28;20028;-67
2021/07/26 12:08:30;;;;;;;26.90;11.80;;;31.80;99.90;;;;;;5127889;28;20451;-67
2021/07/26 12:10:56;;;;;;;17.17;10.40;;;31.70;99.90;;;;;;5111949;28;20031;-67
2021/07/26 12:13:22;;;;;;;24.58;12.20;;;31.60;99.90;;;;;;5104715;28;20088;-67
2021/07/26 12:15:49;;;;;;;26.75;10.85;;;31.70;99.90;;;;;;5093929;28;20081;-68
2021/07/26 12:18:17;;;;;;;23.67;11.52;;;31.80;99.90;;;;;;5094712;28;20067;-66
2021/07/26 12:20:59;;;;;;;21.95;10.23;;;31.60;99.90;;;;;;5096123;28;20498;-66
2021/07/26 12:23:27;;;;;;;24.45;10.52;;;31.50;99.90;;;;;;5094509;28;20032;-68
2021/07/26 12:26:08;;;;;;;28.25;10.88;;;32.00;99.90;;;;;;5092966;28;20024;-68
2021/07/26 12:28:49;;;;;;;17.20;10.73;;;32.00;99.90;;;;;;5105518;28;20020;-66
2021/07/26 12:31:31;;;;;;;;;;;31.80;99.90;;;;;;5107783;28;20059;-67
2021/07/26 12:34:21;;;;;;;;;;;32.00;99.90;;;;;;5114040;28;19911;-66
2021/07/26 12:36:48;;;;;;;19.17;10.38;;;32.50;99.90;;;;;;5115553;28;19910;-67
2021/07/26 12:39:15;;;;;;;20.88;10.07;;;32.80;99.90;;;;;;5113770;28;20047;-68
2021/07/26 12:41:44;;;;;;;14.07;9.98;;;32.70;99.90;;;;;;5092412;28;20020;-68
2021/07/26 12:44:26;;;;;;;28.55;10.13;;;32.70;99.90;;;;;;5092788;28;20062;-67
2021/07/26 12:46:53;;;;;;;20.45;9.93;;;32.80;99.90;;;;;;5093312;28;20095;-66